Dubai International Airport

Airport
ICAO code: 
OMDB
IATA Code: 
DXB
Summary
ICAO Region: 
MID
Location: 
Al Garhoud, Dubai
Serving: 
Dubai
Elevation: 
62 ft
Coordinates: 
Aerial View: 
25° 15' 10" N, 55° 21' 52" E
Airport BS: 
Bird Strike
Airport LOS: 
Parallel Runway Operation
Metar
Observation
OMDB 190000Z 03004KT 340V100 CAVOK 23/19 Q1016 NOSIG
Station
Dubai International Airport
Date/Time
2022-01-19 00:00:00
Wind direction
30°
Wind speed
04 kts
Lowest cloud amount
clouds and visibility OK
Temperature
23°C
Dew point
19°C
Humidity
78%
QNH
1016 hPa
Weather condition
n/a

International airport serving the emirate of Dubai, UAE.

Climatology

Hot Desert Climate (Köppen climate classification BWh) - Hot desert climates are typically found in the subtropics where there is unbroken sunshine for the whole year due to the stable descending air and high pressure, little or no precipitation. Maximum temperatures of 40°C to 45°C are not uncommon, particularly during the warmer months of the year.

Runways

Designator Length Width Surface Rops
12L/30R 4000 60 ASP Yes/Yes
12R/30L 4000 46 ASP Yes/Yes

SKYbrary Partners:

Safety knowledge contributed by: